sensor_id;sensor_type;location;lat;lon;timestamp;pressure;altitude;pressure_sealevel;temperature;humidity
79131;BME280;70394;45.194;9.142;2023-07-16T00:02:06;100553.13;;;28.40;48.83
79131;BME280;70394;45.194;9.142;2023-07-16T00:04:32;100544.31;;;28.38;48.64
79131;BME280;70394;45.194;9.142;2023-07-16T00:07:00;100555.66;;;28.42;48.53
79131;BME280;70394;45.194;9.142;2023-07-16T00:09:25;100554.81;;;28.41;48.52
79131;BME280;70394;45.194;9.142;2023-07-16T00:11:51;100552.13;;;28.41;48.52
79131;BME280;70394;45.194;9.142;2023-07-16T00:14:17;100555.66;;;28.42;48.77
79131;BME280;70394;45.194;9.142;2023-07-16T00:16:42;100557.53;;;28.41;48.52
79131;BME280;70394;45.194;9.142;2023-07-16T00:19:14;100560.06;;;28.43;49.13
79131;BME280;70394;45.194;9.142;2023-07-16T00:21:39;100549.41;;;28.41;48.54
79131;BME280;70394;45.194;9.142;2023-07-16T00:24:05;100557.19;;;28.44;48.76
79131;BME280;70394;45.194;9.142;2023-07-16T00:26:30;100557.53;;;28.41;49.18
79131;BME280;70394;45.194;9.142;2023-07-16T00:28:56;100563.97;;;28.40;49.50
79131;BME280;70394;45.194;9.142;2023-07-16T00:31:21;100556.88;;;28.39;49.22
79131;BME280;70394;45.194;9.142;2023-07-16T00:33:47;100563.78;;;28.42;49.03
79131;BME280;70394;45.194;9.142;2023-07-16T00:36:12;100562.09;;;28.41;49.47
79131;BME280;70394;45.194;9.142;2023-07-16T00:38:37;100570.91;;;28.43;49.35
79131;BME280;70394;45.194;9.142;2023-07-16T00:41:05;100563.78;;;28.42;49.33
79131;BME280;70394;45.194;9.142;2023-07-16T00:43:30;100561.06;;;28.42;49.26
79131;BME280;70394;45.194;9.142;2023-07-16T00:45:55;100557.34;;;28.43;49.55
79131;BME280;70394;45.194;9.142;2023-07-16T00:48:21;100551.91;;;28.43;49.09
79131;BME280;70394;45.194;9.142;2023-07-16T00:50:46;100554.81;;;28.41;49.36
79131;BME280;70394;45.194;9.142;2023-07-16T00:53:12;100552.63;;;28.45;49.50
79131;BME280;70394;45.194;9.142;2023-07-16T00:55:38;100561.44;;;28.47;49.18
79131;BME280;70394;45.194;9.142;2023-07-16T00:58:05;100575.81;;;28.47;49.36
79131;BME280;70394;45.194;9.142;2023-07-16T01:00:35;100570.91;;;28.43;49.78
79131;BME280;70394;45.194;9.142;2023-07-16T01:03:05;100574.13;;;28.46;49.07
79131;BME280;70394;45.194;9.142;2023-07-16T01:05:47;100572.28;;;28.47;49.85
79131;BME280;70394;45.194;9.142;2023-07-16T01:08:14;100564.47;;;28.44;49.77
79131;BME280;70394;45.194;9.142;2023-07-16T01:10:43;100566.84;;;28.47;49.29
79131;BME280;70394;45.194;9.142;2023-07-16T01:13:09;100550.91;;;28.44;49.73
79131;BME280;70394;45.194;9.142;2023-07-16T01:15:34;100543.78;;;28.43;49.53
79131;BME280;70394;45.194;9.142;2023-07-16T01:18:00;100541.06;;;28.43;49.65
79131;BME280;70394;45.194;9.142;2023-07-16T01:20:25;100547.88;;;28.47;49.66
79131;BME280;70394;45.194;9.142;2023-07-16T01:23:29;100535.13;;;28.47;49.59
79131;BME280;70394;45.194;9.142;2023-07-16T01:25:54;100534.47;;;28.45;49.94
79131;BME280;70394;45.194;9.142;2023-07-16T01:31:10;100528.88;;;28.47;49.98
79131;BME280;70394;45.194;9.142;2023-07-16T01:33:37;100537.69;;;28.49;50.00
79131;BME280;70394;45.194;9.142;2023-07-16T01:36:04;100530.56;;;28.48;50.00
79131;BME280;70394;45.194;9.142;2023-07-16T01:38:30;100522.78;;;28.45;50.09
79131;BME280;70394;45.194;9.142;2023-07-16T01:40:55;100523.97;;;28.42;49.63
79131;BME280;70394;45.194;9.142;2023-07-16T01:43:21;100524.47;;;28.46;49.88
79131;BME280;70394;45.194;9.142;2023-07-16T01:45:46;100519.22;;;28.44;50.04
79131;BME280;70394;45.194;9.142;2023-07-16T01:48:32;100527.88;;;28.48;49.94
79131;BME280;70394;45.194;9.142;2023-07-16T01:50:58;100524.47;;;28.46;50.30
79131;BME280;70394;45.194;9.142;2023-07-16T01:53:24;100527.88;;;28.48;50.04
79131;BME280;70394;45.194;9.142;2023-07-16T01:55:49;100531.41;;;28.48;50.15
79131;BME280;70394;45.194;9.142;2023-07-16T01:58:15;100523.25;;;28.48;49.64
79131;BME280;70394;45.194;9.142;2023-07-16T02:00:40;100531.25;;;28.50;49.89
79131;BME280;70394;45.194;9.142;2023-07-16T02:03:06;100518.03;;;28.47;49.86
79131;BME280;70394;45.194;9.142;2023-07-16T02:05:31;100524.13;;;28.49;50.16
79131;BME280;70394;45.194;9.142;2023-07-16T02:07:57;100520.75;;;28.47;49.76
79131;BME280;70394;45.194;9.142;2023-07-16T02:10:22;100515.66;;;28.44;50.21
79131;BME280;70394;45.194;9.142;2023-07-16T02:12:48;100524.13;;;28.49;50.13
79131;BME280;70394;45.194;9.142;2023-07-16T02:15:13;100512.41;;;28.48;50.19
79131;BME280;70394;45.194;9.142;2023-07-16T02:17:39;100510.38;;;28.50;50.18
79131;BME280;70394;45.194;9.142;2023-07-16T02:20:04;100510.56;;;28.49;49.71
79131;BME280;70394;45.194;9.142;2023-07-16T02:22:34;100511.22;;;28.51;50.02
79131;BME280;70394;45.194;9.142;2023-07-16T02:25:00;100518.34;;;28.52;49.95
79131;BME280;70394;45.194;9.142;2023-07-16T02:27:25;100507.00;;;28.48;50.17
79131;BME280;70394;45.194;9.142;2023-07-16T02:29:51;100514.97;;;28.50;50.25
79131;BME280;70394;45.194;9.142;2023-07-16T02:32:16;100504.78;;;28.52;50.17
79131;BME280;70394;45.194;9.142;2023-07-16T02:34:41;100499.88;;;28.47;49.82
79131;BME280;70394;45.194;9.142;2023-07-16T02:37:07;100507.00;;;28.48;49.90
79131;BME280;70394;45.194;9.142;2023-07-16T02:39:32;100505.16;;;28.49;50.35
79131;BME280;70394;45.194;9.142;2023-07-16T02:41:57;100506.84;;;28.50;50.12
79131;BME280;70394;45.194;9.142;2023-07-16T02:44:23;100494.09;;;28.50;49.76
79131;BME280;70394;45.194;9.142;2023-07-16T02:46:48;100492.59;;;28.48;50.24
79131;BME280;70394;45.194;9.142;2023-07-16T02:49:13;100498.03;;;28.48;49.93
79131;BME280;70394;45.194;9.142;2023-07-16T02:51:39;100503.75;;;28.53;50.32
79131;BME280;70394;45.194;9.142;2023-07-16T02:54:04;100503.44;;;28.48;49.80
79131;BME280;70394;45.194;9.142;2023-07-16T02:56:30;100492.59;;;28.48;49.91
79131;BME280;70394;45.194;9.142;2023-07-16T02:58:55;100489.38;;;28.53;50.14
79131;BME280;70394;45.194;9.142;2023-07-16T03:01:20;100500.22;;;28.53;50.07
79131;BME280;70394;45.194;9.142;2023-07-16T03:03:46;100480.06;;;28.47;50.30
79131;BME280;70394;45.194;9.142;2023-07-16T03:06:11;100492.91;;;28.53;50.30
79131;BME280;70394;45.194;9.142;2023-07-16T03:08:36;100497.50;;;28.53;50.13
79131;BME280;70394;45.194;9.142;2023-07-16T03:11:02;100488.00;;;28.48;50.31
79131;BME280;70394;45.194;9.142;2023-07-16T03:13:27;100495.97;;;28.50;50.38
79131;BME280;70394;45.194;9.142;2023-07-16T03:15:52;100496.66;;;28.52;50.12
79131;BME280;70394;45.194;9.142;2023-07-16T03:18:18;100496.66;;;28.52;49.85
79131;BME280;70394;45.194;9.142;2023-07-16T03:20:44;100493.28;;;28.50;50.22
79131;BME280;70394;45.194;9.142;2023-07-16T03:23:09;100493.94;;;28.52;50.23
79131;BME280;70394;45.194;9.142;2023-07-16T03:25:35;100494.28;;;28.49;50.22
79131;BME280;70394;45.194;9.142;2023-07-16T03:28:00;100502.94;;;28.53;50.09
79131;BME280;70394;45.194;9.142;2023-07-16T03:30:25;100499.19;;;28.54;49.97
79131;BME280;70394;45.194;9.142;2023-07-16T03:32:51;100502.94;;;28.53;49.97
79131;BME280;70394;45.194;9.142;2023-07-16T03:35:16;100501.91;;;28.54;50.37
79131;BME280;70394;45.194;9.142;2023-07-16T03:37:42;100508.16;;;28.54;49.86
79131;BME280;70394;45.194;9.142;2023-07-16T03:40:15;100496.81;;;28.50;50.31
79131;BME280;70394;45.194;9.142;2023-07-16T03:42:41;100509.19;;;28.53;49.88
79131;BME280;70394;45.194;9.142;2023-07-16T03:45:07;100507.50;;;28.52;50.02
79131;BME280;70394;45.194;9.142;2023-07-16T03:47:32;100503.94;;;28.51;49.94
79131;BME280;70394;45.194;9.142;2023-07-16T03:49:57;100507.50;;;28.52;50.07
79131;BME280;70394;45.194;9.142;2023-07-16T03:52:23;100505.66;;;28.53;49.90
79131;BME280;70394;45.194;9.142;2023-07-16T03:54:50;100507.34;;;28.54;50.43
79131;BME280;70394;45.194;9.142;2023-07-16T03:57:15;100500.03;;;28.54;50.33
79131;BME280;70394;45.194;9.142;2023-07-16T03:59:41;100491.59;;;28.49;50.41
79131;BME280;70394;45.194;9.142;2023-07-16T04:02:07;100509.19;;;28.53;50.36
79131;BME280;70394;45.194;9.142;2023-07-16T04:04:32;100507.16;;;28.55;50.35
79131;BME280;70394;45.194;9.142;2023-07-16T04:06:58;100506.63;;;28.51;50.39
79131;BME280;70394;45.194;9.142;2023-07-16T04:09:23;100513.94;;;28.51;49.96
79131;BME280;70394;45.194;9.142;2023-07-16T04:11:48;100522.75;;;28.53;50.20
79131;BME280;70394;45.194;9.142;2023-07-16T04:14:14;100515.28;;;28.55;50.20
79131;BME280;70394;45.194;9.142;2023-07-16T04:16:39;100525.09;;;28.56;50.27
79131;BME280;70394;45.194;9.142;2023-07-16T04:19:04;100521.56;;;28.56;49.82
79131;BME280;70394;45.194;9.142;2023-07-16T04:21:30;100528.84;;;28.55;50.05
79131;BME280;70394;45.194;9.142;2023-07-16T04:23:55;100530.72;;;28.55;50.06
79131;BME280;70394;45.194;9.142;2023-07-16T04:26:21;100526.31;;;28.54;50.19
79131;BME280;70394;45.194;9.142;2023-07-16T04:28:46;100529.69;;;28.56;50.07
79131;BME280;70394;45.194;9.142;2023-07-16T04:31:11;100528.00;;;28.55;49.99
79131;BME280;70394;45.194;9.142;2023-07-16T04:33:37;100541.38;;;28.56;49.97
79131;BME280;70394;45.194;9.142;2023-07-16T04:36:02;100544.09;;;28.56;50.32
79131;BME280;70394;45.194;9.142;2023-07-16T04:38:28;100539.69;;;28.55;50.32
79131;BME280;70394;45.194;9.142;2023-07-16T04:40:53;100558.50;;;28.57;49.92
79131;BME280;70394;45.194;9.142;2023-07-16T04:43:18;100547.81;;;28.55;50.41
79131;BME280;70394;45.194;9.142;2023-07-16T04:45:44;100550.38;;;28.57;50.05
79131;BME280;70394;45.194;9.142;2023-07-16T04:48:12;100546.81;;;28.56;50.41
79131;BME280;70394;45.194;9.142;2023-07-16T04:50:38;100551.41;;;28.56;50.48
79131;BME280;70394;45.194;9.142;2023-07-16T04:53:04;100551.88;;;28.59;50.33
79131;BME280;70394;45.194;9.142;2023-07-16T04:55:34;100560.56;;;28.55;50.08
79131;BME280;70394;45.194;9.142;2023-07-16T04:57:59;100560.56;;;28.55;50.52
79131;BME280;70394;45.194;9.142;2023-07-16T05:00:25;100563.94;;;28.57;50.54
79131;BME280;70394;45.194;9.142;2023-07-16T05:02:50;100570.19;;;28.57;50.29
79131;BME280;70394;45.194;9.142;2023-07-16T05:05:15;100569.53;;;28.55;50.63
79131;BME280;70394;45.194;9.142;2023-07-16T05:07:41;100579.00;;;28.59;50.28
79131;BME280;70394;45.194;9.142;2023-07-16T05:10:06;100580.69;;;28.60;49.96
79131;BME280;70394;45.194;9.142;2023-07-16T05:12:32;100583.41;;;28.60;50.51
79131;BME280;70394;45.194;9.142;2023-07-16T05:14:57;100580.22;;;28.57;50.28
79131;BME280;70394;45.194;9.142;2023-07-16T05:17:23;100589.84;;;28.59;50.55
79131;BME280;70394;45.194;9.142;2023-07-16T05:19:48;100589.84;;;28.59;50.15
79131;BME280;70394;45.194;9.142;2023-07-16T05:22:13;100591.53;;;28.60;49.98
79131;BME280;70394;45.194;9.142;2023-07-16T05:24:39;100593.78;;;28.57;50.30
79131;BME280;70394;45.194;9.142;2023-07-16T05:27:05;100593.25;;;28.61;50.25
79131;BME280;70394;45.194;9.142;2023-07-16T05:29:30;100595.28;;;28.59;50.00
79131;BME280;70394;45.194;9.142;2023-07-16T05:31:55;100598.00;;;28.59;50.08
79131;BME280;70394;45.194;9.142;2023-07-16T05:34:21;100603.41;;;28.59;50.24
79131;BME280;70394;45.194;9.142;2023-07-16T05:36:46;100603.59;;;28.58;50.72
79131;BME280;70394;45.194;9.142;2023-07-16T05:39:12;100605.31;;;28.59;50.21
79131;BME280;70394;45.194;9.142;2023-07-16T05:41:39;100602.41;;;28.60;50.44
79131;BME280;70394;45.194;9.142;2023-07-16T05:44:05;100611.41;;;28.61;50.09
79131;BME280;70394;45.194;9.142;2023-07-16T05:46:30;100611.56;;;28.59;50.05
79131;BME280;70394;45.194;9.142;2023-07-16T05:48:56;100610.53;;;28.60;50.59
79131;BME280;70394;45.194;9.142;2023-07-16T05:51:21;100604.13;;;28.61;50.52
79131;BME280;70394;45.194;9.142;2023-07-16T05:53:47;100614.97;;;28.61;50.54
79131;BME280;70394;45.194;9.142;2023-07-16T05:56:12;100613.09;;;28.62;50.59
79131;BME280;70394;45.194;9.142;2023-07-16T05:58:39;100611.56;;;28.59;50.64
79131;BME280;70394;45.194;9.142;2023-07-16T06:01:05;100617.50;;;28.63;50.51
79131;BME280;70394;45.194;9.142;2023-07-16T06:03:30;100613.09;;;28.62;50.43
79131;BME280;70394;45.194;9.142;2023-07-16T06:05:55;100609.53;;;28.61;50.49
79131;BME280;70394;45.194;9.142;2023-07-16T06:08:21;100616.97;;;28.59;50.59
79131;BME280;70394;45.194;9.142;2023-07-16T06:10:46;100617.69;;;28.61;50.09
79131;BME280;70394;45.194;9.142;2023-07-16T06:13:11;100627.66;;;28.61;50.51
79131;BME280;70394;45.194;9.142;2023-07-16T06:15:37;100619.38;;;28.54;50.29
79131;BME280;70394;45.194;9.142;2023-07-16T06:18:02;100620.22;;;28.46;50.25
79131;BME280;70394;45.194;9.142;2023-07-16T06:20:27;100616.53;;;28.39;50.33
79131;BME280;70394;45.194;9.142;2023-07-16T06:22:54;100619.38;;;28.38;49.98
79131;BME280;70394;45.194;9.142;2023-07-16T06:25:19;100617.19;;;28.33;50.30
79131;BME280;70394;45.194;9.142;2023-07-16T06:27:44;100618.41;;;28.30;50.65
79131;BME280;70394;45.194;9.142;2023-07-16T06:30:10;100619.75;;;28.34;50.73
79131;BME280;70394;45.194;9.142;2023-07-16T06:32:36;100610.06;;;28.32;50.71
79131;BME280;70394;45.194;9.142;2023-07-16T06:35:02;100617.69;;;28.36;50.32
79131;BME280;70394;45.194;9.142;2023-07-16T06:37:27;100625.16;;;28.34;50.54
79131;BME280;70394;45.194;9.142;2023-07-16T06:39:53;100628.03;;;28.33;50.66
79131;BME280;70394;45.194;9.142;2023-07-16T06:42:18;100625.50;;;28.31;50.58
79131;BME280;70394;45.194;9.142;2023-07-16T06:44:43;100626.53;;;28.30;49.94
79131;BME280;70394;45.194;9.142;2023-07-16T06:47:09;100625.50;;;28.31;50.65
79131;BME280;70394;45.194;9.142;2023-07-16T06:49:34;100621.44;;;28.35;50.40
79131;BME280;70394;45.194;9.142;2023-07-16T06:52:03;100615.34;;;28.33;49.99
79131;BME280;70394;45.194;9.142;2023-07-16T06:54:28;100618.72;;;28.35;50.09
79131;BME280;70394;45.194;9.142;2023-07-16T06:56:54;100623.63;;;28.40;50.50
79131;BME280;70394;45.194;9.142;2023-07-16T06:59:19;100621.44;;;28.35;49.99
79131;BME280;70394;45.194;9.142;2023-07-16T07:01:44;100622.78;;;28.40;50.04
79131;BME280;70394;45.194;9.142;2023-07-16T07:04:10;100621.94;;;28.39;50.21
79131;BME280;70394;45.194;9.142;2023-07-16T07:06:35;100630.91;;;28.40;50.24
79131;BME280;70394;45.194;9.142;2023-07-16T07:09:00;100617.34;;;28.40;50.78
79131;BME280;70394;45.194;9.142;2023-07-16T07:11:26;100633.47;;;28.41;50.23
79131;BME280;70394;45.194;9.142;2023-07-16T07:13:51;100626.84;;;28.35;49.93
79131;BME280;70394;45.194;9.142;2023-07-16T07:16:17;100629.56;;;28.35;49.80
79131;BME280;70394;45.194;9.142;2023-07-16T07:18:42;100633.63;;;28.40;50.25
79131;BME280;70394;45.194;9.142;2023-07-16T07:21:08;100642.44;;;28.42;49.88
79131;BME280;70394;45.194;9.142;2023-07-16T07:23:33;100641.09;;;28.38;49.69
79131;BME280;70394;45.194;9.142;2023-07-16T07:25:58;100638.03;;;28.41;49.94
79131;BME280;70394;45.194;9.142;2023-07-16T07:28:25;100637.88;;;28.42;49.90
79131;BME280;70394;45.194;9.142;2023-07-16T07:30:50;100632.97;;;28.46;50.38
79131;BME280;70394;45.194;9.142;2023-07-16T07:33:16;100635.81;;;28.44;50.01
79131;BME280;70394;45.194;9.142;2023-07-16T07:35:41;100640.06;;;28.47;50.50
79131;BME280;70394;45.194;9.142;2023-07-16T07:38:07;100639.06;;;28.48;50.10
79131;BME280;70394;45.194;9.142;2023-07-16T07:40:32;100631.25;;;28.45;50.53
79131;BME280;70394;45.194;9.142;2023-07-16T07:42:57;100635.31;;;28.41;50.62
79131;BME280;70394;45.194;9.142;2023-07-16T07:45:24;100640.06;;;28.47;49.75
79131;BME280;70394;45.194;9.142;2023-07-16T07:47:49;100647.19;;;28.48;50.12
79131;BME280;70394;45.194;9.142;2023-07-16T07:50:15;100638.03;;;28.49;50.46
79131;BME280;70394;45.194;9.142;2023-07-16T07:52:40;100646.34;;;28.56;50.09
79131;BME280;70394;45.194;9.142;2023-07-16T07:55:06;100641.41;;;28.51;50.55
79131;BME280;70394;45.194;9.142;2023-07-16T07:57:31;100641.75;;;28.56;50.62
79131;BME280;70394;45.194;9.142;2023-07-16T07:59:57;100637.69;;;28.52;50.78
79131;BME280;70394;45.194;9.142;2023-07-16T08:02:25;100646.16;;;28.49;50.26
79131;BME280;70394;45.194;9.142;2023-07-16T08:04:54;100650.91;;;28.47;50.09
79131;BME280;70394;45.194;9.142;2023-07-16T08:07:21;100648.88;;;28.49;49.87
79131;BME280;70394;45.194;9.142;2023-07-16T08:09:46;100651.09;;;28.54;50.06
79131;BME280;70394;45.194;9.142;2023-07-16T08:12:13;100647.00;;;28.58;50.31
79131;BME280;70394;45.194;9.142;2023-07-16T08:14:38;100649.53;;;28.59;50.46
79131;BME280;70394;45.194;9.142;2023-07-16T08:17:04;100653.94;;;28.60;50.66
79131;BME280;70394;45.194;9.142;2023-07-16T08:19:30;100660.88;;;28.63;49.91
79131;BME280;70394;45.194;9.142;2023-07-16T08:21:55;100662.06;;;28.60;50.79
79131;BME280;70394;45.194;9.142;2023-07-16T08:24:20;100666.31;;;28.63;50.41
79131;BME280;70394;45.194;9.142;2023-07-16T08:26:46;100669.22;;;28.61;50.78
79131;BME280;70394;45.194;9.142;2023-07-16T08:29:11;100664.47;;;28.63;50.10
79131;BME280;70394;45.194;9.142;2023-07-16T08:31:36;100658.19;;;28.63;50.53
79131;BME280;70394;45.194;9.142;2023-07-16T08:34:02;100662.22;;;28.67;50.58
79131;BME280;70394;45.194;9.142;2023-07-16T08:36:27;100657.34;;;28.62;50.33
79131;BME280;70394;45.194;9.142;2023-07-16T08:38:53;100656.13;;;28.65;50.06
79131;BME280;70394;45.194;9.142;2023-07-16T08:41:18;100661.75;;;28.63;50.73
79131;BME280;70394;45.194;9.142;2023-07-16T08:43:46;100661.72;;;28.72;50.23
79131;BME280;70394;45.194;9.142;2023-07-16T08:46:12;100676.00;;;28.65;50.61
79131;BME280;70394;45.194;9.142;2023-07-16T08:48:37;100678.84;;;28.64;50.55
79131;BME280;70394;45.194;9.142;2023-07-16T08:51:03;100672.41;;;28.65;50.08
79131;BME280;70394;45.194;9.142;2023-07-16T08:53:30;100669.88;;;28.55;50.27
79131;BME280;70394;45.194;9.142;2023-07-16T08:55:55;100673.28;;;28.57;49.92
79131;BME280;70394;45.194;9.142;2023-07-16T08:58:23;100668.19;;;28.62;50.52
79131;BME280;70394;45.194;9.142;2023-07-16T09:00:49;100672.91;;;28.60;49.61
79131;BME280;70394;45.194;9.142;2023-07-16T09:03:15;100663.09;;;28.68;49.60
79131;BME280;70394;45.194;9.142;2023-07-16T09:05:45;100670.56;;;28.65;49.67
79131;BME280;70394;45.194;9.142;2023-07-16T09:08:11;100661.56;;;28.73;49.82
79131;BME280;70394;45.194;9.142;2023-07-16T09:10:40;100661.91;;;28.70;48.98
79131;BME280;70394;45.194;9.142;2023-07-16T09:13:05;100659.38;;;28.69;49.35
79131;BME280;70394;45.194;9.142;2023-07-16T09:15:31;100663.59;;;28.71;49.55
79131;BME280;70394;45.194;9.142;2023-07-16T09:17:56;100655.28;;;28.73;49.10
79131;BME280;70394;45.194;9.142;2023-07-16T09:20:22;100655.63;;;28.70;50.05
79131;BME280;70394;45.194;9.142;2023-07-16T09:22:49;100657.00;;;28.65;49.32
79131;BME280;70394;45.194;9.142;2023-07-16T09:25:14;100646.81;;;28.68;49.79
79131;BME280;70394;45.194;9.142;2023-07-16T09:27:39;100651.19;;;28.77;49.92
79131;BME280;70394;45.194;9.142;2023-07-16T09:30:05;100646.13;;;28.74;50.02
79131;BME280;70394;45.194;9.142;2023-07-16T09:32:35;100654.09;;;28.75;49.43
79131;BME280;70394;45.194;9.142;2023-07-16T09:35:06;100648.66;;;28.75;49.95
79131;BME280;70394;45.194;9.142;2023-07-16T09:37:32;100656.97;;;28.74;49.73
79131;BME280;70394;45.194;9.142;2023-07-16T09:39:57;100652.94;;;28.61;49.43
79131;BME280;70394;45.194;9.142;2023-07-16T09:42:23;100654.44;;;28.64;48.54
79131;BME280;70394;45.194;9.142;2023-07-16T09:44:49;100657.84;;;28.74;49.20
79131;BME280;70394;45.194;9.142;2023-07-16T09:47:15;100658.00;;;28.73;48.22
79131;BME280;70394;45.194;9.142;2023-07-16T09:49:41;100653.94;;;28.69;49.70
79131;BME280;70394;45.194;9.142;2023-07-16T09:52:06;100662.75;;;28.71;49.26
79131;BME280;70394;45.194;9.142;2023-07-16T09:54:32;100659.00;;;28.72;48.75
79131;BME280;70394;45.194;9.142;2023-07-16T09:57:03;100654.25;;;28.74;49.21
79131;BME280;70394;45.194;9.142;2023-07-16T09:59:31;100655.97;;;28.83;49.27
79131;BME280;70394;45.194;9.142;2023-07-16T10:01:57;100663.09;;;28.68;49.88
79131;BME280;70394;45.194;9.142;2023-07-16T10:04:24;100664.28;;;28.82;49.41
79131;BME280;70394;45.194;9.142;2023-07-16T10:06:57;100658.34;;;28.78;50.20
79131;BME280;70394;45.194;9.142;2023-07-16T10:09:50;100662.75;;;28.71;50.28
79131;BME280;70394;45.194;9.142;2023-07-16T10:12:17;100660.03;;;28.79;49.67
79131;BME280;70394;45.194;9.142;2023-07-16T10:14:45;100659.53;;;28.84;50.19
79131;BME280;70394;45.194;9.142;2023-07-16T10:17:19;100660.69;;;28.89;50.33
79131;BME280;70394;45.194;9.142;2023-07-16T10:19:58;100661.91;;;28.70;50.55
79131;BME280;70394;45.194;9.142;2023-07-16T10:24:56;100670.72;;;28.89;50.49
79131;BME280;70394;45.194;9.142;2023-07-16T10:27:29;100658.50;;;28.85;50.31
79131;BME280;70394;45.194;9.142;2023-07-16T10:29:55;100662.03;;;28.77;50.68
79131;BME280;70394;45.194;9.142;2023-07-16T10:32:21;100663.09;;;28.84;50.28
79131;BME280;70394;45.194;9.142;2023-07-16T10:34:46;100663.06;;;28.92;49.96
79131;BME280;70394;45.194;9.142;2023-07-16T10:37:11;100664.59;;;28.78;50.24
79131;BME280;70394;45.194;9.142;2023-07-16T10:39:49;100658.34;;;28.95;50.32
79131;BME280;70394;45.194;9.142;2023-07-16T10:42:18;100661.56;;;28.90;50.46
79131;BME280;70394;45.194;9.142;2023-07-16T10:44:44;100655.28;;;28.89;50.31
79131;BME280;70394;45.194;9.142;2023-07-16T10:47:17;100655.28;;;28.89;49.91
79131;BME280;70394;45.194;9.142;2023-07-16T10:49:44;100651.03;;;28.95;49.89
79131;BME280;70394;45.194;9.142;2023-07-16T10:52:09;100653.53;;;29.05;50.06
79131;BME280;70394;45.194;9.142;2023-07-16T10:54:35;100655.94;;;28.91;50.15
79131;BME280;70394;45.194;9.142;2023-07-16T10:57:00;100654.06;;;29.00;50.22
79131;BME280;70394;45.194;9.142;2023-07-16T10:59:25;100651.84;;;29.04;50.21
79131;BME280;70394;45.194;9.142;2023-07-16T11:01:51;100650.16;;;29.03;49.96
79131;BME280;70394;45.194;9.142;2023-07-16T11:04:16;100652.19;;;29.01;51.07
79131;BME280;70394;45.194;9.142;2023-07-16T11:06:42;100642.00;;;29.11;50.04
79131;BME280;70394;45.194;9.142;2023-07-16T11:09:10;100635.91;;;29.01;50.80
79131;BME280;70394;45.194;9.142;2023-07-16T11:11:36;100624.91;;;29.02;50.11
79131;BME280;70394;45.194;9.142;2023-07-16T11:14:06;100633.50;;;29.06;50.41
79131;BME280;70394;45.194;9.142;2023-07-16T11:16:36;100640.25;;;29.18;50.17
79131;BME280;70394;45.194;9.142;2023-07-16T11:19:05;100628.22;;;29.21;50.37
79131;BME280;70394;45.194;9.142;2023-07-16T11:21:35;100625.66;;;29.19;50.64
79131;BME280;70394;45.194;9.142;2023-07-16T11:24:10;100626.31;;;29.21;50.30
79131;BME280;70394;45.194;9.142;2023-07-16T11:26:36;100610.22;;;29.20;50.77
79131;BME280;70394;45.194;9.142;2023-07-16T11:29:01;100613.75;;;29.29;50.28
79131;BME280;70394;45.194;9.142;2023-07-16T11:31:26;100612.06;;;29.28;50.18
79131;BME280;70394;45.194;9.142;2023-07-16T11:33:52;100614.28;;;29.24;51.27
79131;BME280;70394;45.194;9.142;2023-07-16T11:36:17;100608.19;;;29.14;51.08
79131;BME280;70394;45.194;9.142;2023-07-16T11:38:42;100613.91;;;28.87;48.88
79131;BME280;70394;45.194;9.142;2023-07-16T11:41:08;100605.66;;;28.56;48.14
79131;BME280;70394;45.194;9.142;2023-07-16T11:43:34;100610.06;;;28.32;48.34
79131;BME280;70394;45.194;9.142;2023-07-16T11:46:02;100607.34;;;28.07;46.32
79131;BME280;70394;45.194;9.142;2023-07-16T11:48:27;100601.06;;;27.90;45.58
79131;BME280;70394;45.194;9.142;2023-07-16T11:50:52;100591.56;;;27.69;45.47
79131;BME280;70394;45.194;9.142;2023-07-16T11:53:18;100598.50;;;27.55;45.15
79131;BME280;70394;45.194;9.142;2023-07-16T11:55:43;100587.88;;;27.35;43.61
79131;BME280;70394;45.194;9.142;2023-07-16T11:58:08;100592.81;;;27.32;43.33
79131;BME280;70394;45.194;9.142;2023-07-16T12:00:34;100592.44;;;27.27;43.50
79131;BME280;70394;45.194;9.142;2023-07-16T12:02:59;100594.13;;;27.19;41.60
79131;BME280;70394;45.194;9.142;2023-07-16T12:05:25;100587.00;;;27.18;42.57
79131;BME280;70394;45.194;9.142;2023-07-16T12:07:51;100584.78;;;27.14;42.24
79131;BME280;70394;45.194;9.142;2023-07-16T12:10:17;100583.25;;;27.11;41.88
79131;BME280;70394;45.194;9.142;2023-07-16T12:12:42;100582.94;;;27.14;41.99
79131;BME280;70394;45.194;9.142;2023-07-16T12:15:08;100576.13;;;27.10;41.98
79131;BME280;70394;45.194;9.142;2023-07-16T12:17:33;100585.13;;;27.19;42.29
79131;BME280;70394;45.194;9.142;2023-07-16T12:20:00;100573.31;;;27.20;42.61
79131;BME280;70394;45.194;9.142;2023-07-16T12:22:25;100578.22;;;27.24;42.69
79131;BME280;70394;45.194;9.142;2023-07-16T12:24:51;100575.84;;;27.21;41.93
79131;BME280;70394;45.194;9.142;2023-07-16T12:27:18;100581.59;;;27.27;42.21
79131;BME280;70394;45.194;9.142;2023-07-16T12:29:44;100581.13;;;27.31;42.85
79131;BME280;70394;45.194;9.142;2023-07-16T12:32:10;100578.75;;;27.28;42.60
79131;BME280;70394;45.194;9.142;2023-07-16T12:34:35;100586.03;;;27.36;42.70
79131;BME280;70394;45.194;9.142;2023-07-16T12:37:01;100585.69;;;27.31;43.16
79131;BME280;70394;45.194;9.142;2023-07-16T12:39:26;100583.34;;;27.44;43.78
79131;BME280;70394;45.194;9.142;2023-07-16T12:41:52;100588.16;;;27.59;44.40
79131;BME280;70394;45.194;9.142;2023-07-16T12:44:17;100583.78;;;27.66;45.58
79131;BME280;70394;45.194;9.142;2023-07-16T12:46:42;100587.19;;;27.85;46.04
79131;BME280;70394;45.194;9.142;2023-07-16T12:49:08;100578.22;;;27.92;46.82
79131;BME280;70394;45.194;9.142;2023-07-16T12:51:33;100583.13;;;28.05;47.49